createdAt,value
2022-12-20T00:05:21.225Z,2.60
2022-12-20T00:15:30.521Z,2.90
2022-12-20T00:25:45.041Z,3.80
2022-12-20T00:35:58.513Z,4.13
2022-12-20T00:46:11.086Z,3.85
2022-12-20T00:56:20.416Z,3.60
2022-12-20T01:06:34.916Z,3.40
2022-12-20T01:28:03.978Z,2.92
2022-12-20T01:38:14.855Z,3.22
2022-12-20T01:48:40.853Z,2.72
2022-12-20T01:59:57.430Z,3.10
2022-12-20T02:10:29.913Z,2.72
2022-12-20T02:21:20.653Z,2.60
2022-12-20T02:31:35.991Z,2.22
2022-12-20T02:41:48.457Z,2.55
2022-12-20T03:03:21.553Z,2.42
2022-12-20T03:13:33.680Z,2.28
2022-12-20T03:23:45.711Z,2.25
2022-12-20T03:33:57.273Z,2.75
2022-12-20T03:45:16.727Z,2.60
2022-12-20T03:55:26.302Z,2.35
2022-12-20T04:05:35.334Z,2.42
2022-12-20T04:15:56.795Z,2.53
2022-12-20T04:26:15.950Z,2.25
2022-12-20T04:36:27.518Z,3.08
2022-12-20T04:46:40.650Z,2.85
2022-12-20T04:57:02.894Z,2.70
2022-12-20T05:07:13.315Z,2.28
2022-12-20T05:17:32.784Z,2.10
2022-12-20T05:27:55.976Z,2.22
2022-12-20T05:52:10.588Z,2.45
2022-12-20T06:02:59.490Z,2.35
2022-12-20T06:13:31.541Z,2.55
2022-12-20T06:23:40.605Z,3.42
2022-12-20T06:33:51.000Z,2.83
2022-12-20T06:44:05.916Z,2.10
2022-12-20T06:54:13.744Z,1.58
2022-12-20T07:04:22.500Z,1.50
2022-12-20T07:14:32.412Z,3.70
2022-12-20T07:24:43.981Z,2.00
2022-12-20T07:34:50.755Z,1.30
2022-12-20T07:44:59.358Z,1.80
2022-12-20T07:55:11.420Z,1.98
2022-12-20T08:05:23.444Z,1.90
2022-12-20T08:15:32.248Z,1.70
2022-12-20T08:25:42.072Z,1.73
2022-12-20T08:35:59.536Z,1.80
2022-12-20T08:46:13.018Z,1.80
2022-12-20T08:56:21.183Z,1.80
2022-12-20T09:06:30.057Z,1.67
2022-12-20T09:16:37.128Z,1.73
2022-12-20T09:27:24.068Z,1.70
2022-12-20T09:37:33.627Z,1.80
2022-12-20T09:47:43.137Z,1.67
2022-12-20T09:58:14.483Z,1.80
2022-12-20T10:08:45.327Z,1.85
2022-12-20T10:19:21.691Z,1.60
2022-12-20T10:29:30.542Z,1.90
2022-12-20T10:39:49.863Z,1.80
2022-12-20T10:50:26.016Z,1.73
2022-12-20T11:01:06.174Z,1.73
2022-12-20T11:11:38.278Z,1.58
2022-12-20T11:21:50.732Z,1.70
2022-12-20T11:32:07.094Z,1.45
2022-12-20T11:42:19.764Z,1.50
2022-12-20T11:52:37.323Z,1.63
2022-12-20T12:02:56.464Z,1.40
2022-12-20T12:13:14.780Z,1.40
2022-12-20T12:23:29.310Z,1.42
2022-12-20T12:33:51.293Z,1.63
2022-12-20T12:44:01.656Z,1.40
2022-12-20T12:54:25.443Z,1.80
2022-12-20T13:04:53.655Z,1.40
2022-12-20T13:15:34.297Z,1.40
2022-12-20T13:25:43.189Z,1.55
2022-12-20T13:36:03.318Z,1.58
2022-12-20T13:46:30.340Z,1.40
2022-12-20T13:56:50.244Z,1.50
2022-12-20T14:07:00.764Z,1.55
2022-12-20T14:17:21.110Z,1.40
2022-12-20T14:27:32.438Z,1.52
2022-12-20T14:38:37.522Z,1.60
2022-12-20T14:48:46.267Z,1.55
2022-12-20T14:59:06.246Z,1.67
2022-12-20T15:09:18.295Z,1.45
2022-12-20T15:19:25.172Z,1.80
2022-12-20T15:29:33.626Z,1.60
2022-12-20T15:39:40.362Z,1.80
2022-12-20T15:49:50.685Z,1.77
2022-12-20T15:59:59.972Z,1.80
2022-12-20T16:10:17.125Z,1.75
2022-12-20T16:20:23.896Z,1.58
2022-12-20T16:30:32.553Z,2.03
2022-12-20T16:40:39.304Z,1.70
2022-12-20T16:50:48.674Z,2.05
2022-12-20T17:00:55.494Z,2.10
2022-12-20T17:11:05.010Z,2.10
2022-12-20T17:21:24.000Z,1.55
2022-12-20T17:31:37.132Z,1.88
2022-12-20T17:41:44.537Z,2.20
2022-12-20T17:51:53.463Z,1.98
2022-12-20T18:02:00.505Z,2.20
2022-12-20T18:12:09.954Z,2.45
2022-12-20T18:22:16.882Z,2.25
2022-12-20T18:32:25.893Z,35.70
2022-12-20T18:42:32.644Z,22.77
2022-12-20T18:52:44.474Z,14.15
2022-12-20T19:02:54.294Z,9.60
2022-12-20T19:13:05.983Z,7.22
2022-12-20T19:23:14.689Z,5.65
2022-12-20T19:33:26.372Z,4.35
2022-12-20T19:56:02.055Z,2.38
2022-12-20T20:06:12.848Z,2.20
2022-12-20T20:16:23.201Z,2.17
2022-12-20T20:26:32.619Z,1.95
2022-12-20T20:36:40.998Z,2.03
2022-12-20T20:46:47.791Z,2.10
2022-12-20T20:56:56.216Z,1.88
2022-12-20T21:07:02.976Z,1.70
2022-12-20T21:17:12.670Z,1.63
2022-12-20T21:27:19.471Z,1.27
2022-12-20T21:37:28.140Z,1.05
2022-12-20T21:47:37.336Z,1.40
2022-12-20T21:57:48.885Z,1.40
2022-12-20T22:07:55.688Z,1.48
2022-12-20T22:18:04.596Z,1.60
2022-12-20T22:28:11.596Z,1.50
2022-12-20T22:38:20.135Z,1.40
2022-12-20T22:48:26.969Z,1.33
2022-12-20T22:58:36.611Z,1.50
2022-12-20T23:08:43.723Z,1.63
2022-12-20T23:18:52.759Z,1.35
2022-12-20T23:28:59.496Z,1.30
2022-12-20T23:39:08.677Z,1.55
2022-12-20T23:49:15.612Z,1.60
2022-12-20T23:59:24.378Z,1.50
